Weather at Washington Dulles International Airport

Public forecast

Using degrees Fahrenheit for public forecast. Weather courtesy of forecast.io.

Current aviation weather report (METAR) for Washington Dulles International Airport

Retrieved 2021/10/23 02:52 UTC (59 minutes ago):

KIAD 230252Z 33004KT 10SM BKN085 16/09 A2998 RMK AO2 SLP149 T01560094 51005

Aviation forecast (TAF) for Washington Dulles International Airport

Retrieved 2021-10-23 00:22 UTC (3 hours ago):

TAF KIAD 222320Z 2300/2406 34007KT P6SM BKN070 FM230200 00000KT P6SM BKN045 FM231400 28006KT P6SM SCT035